Time;durP1;ratioP1;P1;durP2;ratioP2;P2;SDS_P1;SDS_P2;PMS_P1;PMS_P2;Temp;Humidity;BMP_temperature;BMP_pressure;BME280_temperature;BME280_humidity;BME280_pressure;Samples;Min_cycle;Max_cycle;Signal;HPM_P1;HPM_P2
2022/09/09 00:00:18;;;;;;;0.00;0.00;;;16.20;99.90;;;;;;5061217;28;20048;-84
2022/09/09 00:02:54;;;;;;;0.00;0.00;;;15.30;99.90;;;;;;5067721;28;20048;-83
2022/09/09 00:05:29;;;;;;;0.00;0.00;;;15.30;99.90;;;;;;5070220;28;20048;-82
2022/09/09 00:07:59;;;;;;;0.00;0.00;;;15.30;99.90;;;;;;5062706;28;20052;-83
2022/09/09 00:10:29;;;;;;;0.00;0.00;;;15.30;99.90;;;;;;5060456;28;20612;-83
2022/09/09 00:13:15;;;;;;;0.00;0.00;;;15.30;99.90;;;;;;5066602;28;20041;-84
2022/09/09 00:15:52;;;;;;;0.00;0.00;;;15.40;99.90;;;;;;5065090;28;20119;-83
2022/09/09 00:18:25;;;;;;;0.00;0.00;;;15.30;99.90;;;;;;5063407;28;20033;-85
2022/09/09 00:20:58;;;;;;;0.00;0.00;;;15.30;99.90;;;;;;5063626;28;20046;-84
2022/09/09 00:23:28;;;;;;;0.00;0.00;;;17.40;99.90;;;;;;5063747;28;20035;-84
2022/09/09 00:26:03;;;;;;;0.00;0.00;;;15.30;99.90;;;;;;5072056;28;20123;-85
2022/09/09 00:28:39;;;;;;;0.00;0.00;;;15.30;99.90;;;;;;5058406;28;20040;-84
2022/09/09 00:31:12;;;;;;;0.00;0.00;;;15.40;99.90;;;;;;5066194;28;20043;-84
2022/09/09 00:33:40;;;;;;;0.00;0.00;;;;;;;;;;5065699;28;20501;-83
2022/09/09 00:36:13;;;;;;;0.00;0.00;;;15.40;99.90;;;;;;5065767;28;20139;-84
2022/09/09 00:38:45;;;;;;;0.00;0.00;;;17.10;99.90;;;;;;5065766;28;20476;-84
2022/09/09 00:41:18;;;;;;;0.00;0.00;;;15.50;99.90;;;;;;5065467;28;20048;-84
2022/09/09 00:43:55;;;;;;;0.00;0.00;;;15.50;99.90;;;;;;5078823;28;20115;-84
2022/09/09 00:46:44;;;;;;;0.00;0.00;;;15.50;99.90;;;;;;5067221;28;20049;-84
2022/09/09 00:49:20;;;;;;;0.00;0.00;;;15.50;99.90;;;;;;5070053;28;20132;-84
2022/09/09 00:51:52;;;;;;;0.00;0.00;;;15.50;99.90;;;;;;5067194;28;20049;-84
2022/09/09 00:54:31;;;;;;;0.00;0.00;;;15.40;99.90;;;;;;5063109;28;20139;-84
2022/09/09 00:57:11;;;;;;;0.00;0.00;;;15.40;99.90;;;;;;5065182;28;20047;-84
2022/09/09 00:59:44;;;;;;;;;;;15.50;99.90;;;;;;5071657;28;20050;-84
2022/09/09 01:02:21;;;;;;;0.00;0.00;;;15.40;99.90;;;;;;5062163;28;19920;-83
2022/09/09 01:04:48;;;;;;;0.00;0.00;;;15.50;99.90;;;;;;5081384;28;20059;-84
2022/09/09 01:07:18;;;;;;;0.00;0.00;;;15.50;99.90;;;;;;5063847;28;20098;-83
2022/09/09 01:09:54;;;;;;;;;;;15.60;99.90;;;;;;5066967;28;20076;-83
2022/09/09 01:12:29;;;;;;;0.00;0.00;;;15.60;99.90;;;;;;5066007;28;20444;-84
2022/09/09 01:15:08;;;;;;;0.00;0.00;;;15.50;99.90;;;;;;5070157;28;20066;-84
2022/09/09 01:17:45;;;;;;;0.00;0.00;;;15.60;99.90;;;;;;5072012;28;20661;-83
2022/09/09 01:20:17;;;;;;;0.00;0.00;;;15.50;99.90;;;;;;5102473;22;20040;-80
2022/09/09 01:22:52;;;;;;;0.00;0.00;;;15.50;99.90;;;;;;5086809;28;20499;-80
2022/09/09 01:25:28;;;;;;;0.00;0.00;;;15.50;99.90;;;;;;5079354;28;20039;-80
2022/09/09 01:28:00;;;;;;;0.00;0.00;;;15.50;99.90;;;;;;5081473;28;20463;-78
2022/09/09 01:30:28;;;;;;;0.00;0.00;;;15.50;99.90;;;;;;5081063;28;20196;-80
2022/09/09 01:32:58;;;;;;;0.00;0.00;;;15.40;99.90;;;;;;5068993;28;20048;-81
2022/09/09 01:35:43;;;;;;;0.00;0.00;;;15.40;99.90;;;;;;5079633;28;20503;-81
2022/09/09 01:38:11;;;;;;;0.00;0.00;;;15.40;99.90;;;;;;5083983;28;20075;-81
2022/09/09 01:40:38;;;;;;;0.00;0.00;;;15.40;99.90;;;;;;5091095;28;20447;-78
2022/09/09 01:43:07;;;;;;;0.00;0.00;;;15.40;99.90;;;;;;5084439;28;20036;-82
2022/09/09 01:45:34;;;;;;;0.00;0.00;;;15.40;99.90;;;;;;5085374;28;20045;-80
2022/09/09 01:48:02;;;;;;;0.00;0.00;;;15.40;99.90;;;;;;5081485;28;20408;-81
2022/09/09 01:50:29;;;;;;;0.10;0.10;;;15.30;99.90;;;;;;5085231;28;20441;-80
2022/09/09 01:52:58;;;;;;;0.00;0.00;;;15.40;99.90;;;;;;5090200;28;20151;-78
2022/09/09 01:55:30;;;;;;;0.00;0.00;;;15.40;99.90;;;;;;5093215;28;20032;-80
2022/09/09 01:58:08;;;;;;;0.00;0.00;;;15.40;99.90;;;;;;5088611;28;20036;-80
2022/09/09 02:00:41;;;;;;;0.00;0.00;;;15.40;99.90;;;;;;5088156;28;20386;-81
2022/09/09 02:03:17;;;;;;;0.00;0.00;;;15.50;99.90;;;;;;5092299;28;20044;-79
2022/09/09 02:05:49;;;;;;;0.00;0.00;;;15.40;99.90;;;;;;5091979;28;20283;-81
2022/09/09 02:08:23;;;;;;;0.00;0.00;;;15.50;99.90;;;;;;5089263;28;20125;-82
2022/09/09 02:10:56;;;;;;;0.00;0.00;;;16.40;99.90;;;;;;5093427;28;20039;-81
2022/09/09 02:13:25;;;;;;;0.00;0.00;;;15.50;99.90;;;;;;5093607;28;20539;-81
2022/09/09 02:15:58;;;;;;;0.00;0.00;;;15.40;99.90;;;;;;5087275;28;20524;-81
2022/09/09 02:18:30;;;;;;;0.00;0.00;;;15.50;99.90;;;;;;5086663;28;20048;-81
2022/09/09 02:20:59;;;;;;;0.00;0.00;;;15.40;99.90;;;;;;5096286;28;20137;-82
2022/09/09 02:23:27;;;;;;;0.00;0.00;;;15.40;99.90;;;;;;5097431;28;20127;-83
2022/09/09 02:25:55;;;;;;;0.00;0.00;;;15.40;99.90;;;;;;5089823;28;20043;-79
2022/09/09 02:28:27;;;;;;;0.00;0.00;;;15.40;99.90;;;;;;5095464;28;20052;-81
2022/09/09 02:30:55;;;;;;;0.00;0.00;;;15.50;99.90;;;;;;5084986;28;20476;-79
2022/09/09 02:33:26;;;;;;;0.00;0.00;;;15.60;99.90;;;;;;5094787;28;20037;-82
2022/09/09 02:36:00;;;;;;;0.00;0.00;;;15.60;99.90;;;;;;5082527;28;20051;-80
2022/09/09 02:38:32;;;;;;;0.00;0.00;;;15.70;99.90;;;;;;5094142;28;20100;-80
2022/09/09 02:40:59;;;;;;;0.00;0.00;;;15.70;99.90;;;;;;5094533;28;20044;-80
2022/09/09 02:43:31;;;;;;;0.00;0.00;;;15.80;99.90;;;;;;5093430;28;20421;-81
2022/09/09 02:46:07;;;;;;;0.00;0.00;;;15.80;99.90;;;;;;5105875;28;20127;-80
2022/09/09 02:48:43;;;;;;;0.00;0.00;;;15.70;99.90;;;;;;5092559;28;20155;-80
2022/09/09 02:51:18;;;;;;;0.00;0.00;;;15.80;99.90;;;;;;5088601;28;20039;-79
2022/09/09 02:53:53;;;;;;;0.00;0.00;;;15.80;99.90;;;;;;5094106;28;20170;-82
2022/09/09 02:56:25;;;;;;;0.00;0.00;;;15.80;99.90;;;;;;5092385;28;20323;-81
2022/09/09 02:58:54;;;;;;;0.00;0.00;;;15.90;99.90;;;;;;5097267;28;20131;-81
2022/09/09 03:01:21;;;;;;;0.00;0.00;;;15.80;99.90;;;;;;5087010;28;20154;-80
2022/09/09 03:03:48;;;;;;;0.00;0.00;;;15.90;99.90;;;;;;5100601;28;20675;-80
2022/09/09 03:06:16;;;;;;;0.00;0.00;;;15.90;99.90;;;;;;5096690;28;20131;-81
2022/09/09 03:08:43;;;;;;;0.00;0.00;;;15.90;99.90;;;;;;5094266;28;20567;-82
2022/09/09 03:11:15;;;;;;;0.00;0.00;;;15.90;99.90;;;;;;5096197;28;20093;-82
2022/09/09 03:13:43;;;;;;;0.00;0.00;;;15.90;99.90;;;;;;5088739;28;20598;-81
2022/09/09 03:16:11;;;;;;;0.00;0.00;;;15.90;99.90;;;;;;5087571;28;20111;-81
2022/09/09 03:18:38;;;;;;;0.00;0.00;;;15.90;99.90;;;;;;5092976;28;20044;-82
2022/09/09 03:21:06;;;;;;;0.10;0.10;;;15.90;99.90;;;;;;5089452;28;20139;-82
2022/09/09 03:23:33;;;;;;;0.00;0.00;;;15.90;99.90;;;;;;5093798;28;20076;-82
2022/09/09 03:26:00;;;;;;;0.00;0.00;;;16.00;99.90;;;;;;5093504;28;20032;-81
2022/09/09 03:28:30;;;;;;;0.00;0.00;;;16.00;99.90;;;;;;5095005;28;20035;-81
2022/09/09 03:30:59;;;;;;;0.00;0.00;;;15.90;99.90;;;;;;5093980;28;20039;-81
2022/09/09 03:33:29;;;;;;;0.00;0.00;;;15.80;99.90;;;;;;5092390;28;20068;-82
2022/09/09 03:35:56;;;;;;;0.10;0.10;;;15.80;99.90;;;;;;5090292;28;20098;-81
2022/09/09 03:38:23;;;;;;;0.00;0.00;;;15.80;99.90;;;;;;5096411;28;20123;-80
2022/09/09 03:40:51;;;;;;;0.00;0.00;;;15.80;99.90;;;;;;5087916;28;20128;-82
2022/09/09 03:43:17;;;;;;;0.00;0.00;;;15.70;99.90;;;;;;5092219;28;20127;-78
2022/09/09 03:45:46;;;;;;;0.00;0.00;;;15.70;99.90;;;;;;5094240;28;20563;-84
2022/09/09 03:48:15;;;;;;;0.00;0.00;;;15.80;99.90;;;;;;5092166;28;20040;-82
2022/09/09 03:50:45;;;;;;;0.03;0.03;;;15.80;99.90;;;;;;5109329;28;20047;-81
2022/09/09 03:53:13;;;;;;;0.00;0.00;;;15.80;99.90;;;;;;5093787;28;20036;-83
2022/09/09 03:55:44;;;;;;;0.00;0.00;;;15.90;99.90;;;;;;5096337;28;20884;-82
2022/09/09 03:58:10;;;;;;;0.00;0.00;;;15.80;99.90;;;;;;5096930;28;20044;-81
2022/09/09 04:00:42;;;;;;;0.00;0.00;;;15.90;99.90;;;;;;5099182;28;20111;-80
2022/09/09 04:03:09;;;;;;;0.10;0.10;;;15.80;99.90;;;;;;5090943;28;20044;-81
2022/09/09 04:05:39;;;;;;;0.00;0.00;;;15.80;99.90;;;;;;5085106;28;20032;-80
2022/09/09 04:08:08;;;;;;;0.00;0.00;;;15.80;99.90;;;;;;5082955;28;20044;-80
2022/09/09 04:10:37;;;;;;;0.00;0.00;;;15.80;99.90;;;;;;5092551;28;20030;-80
2022/09/09 04:13:04;;;;;;;0.00;0.00;;;15.90;99.90;;;;;;5084434;28;20483;-80
2022/09/09 04:15:31;;;;;;;0.00;0.00;;;15.90;99.90;;;;;;5078823;28;20044;-80
2022/09/09 04:17:58;;;;;;;0.00;0.00;;;15.80;99.90;;;;;;5083398;28;20663;-81
2022/09/09 04:20:25;;;;;;;0.00;0.00;;;15.80;99.90;;;;;;5090638;28;20036;-78
2022/09/09 04:22:52;;;;;;;0.00;0.00;;;15.80;99.90;;;;;;5078831;28;20048;-79
2022/09/09 04:25:20;;;;;;;0.00;0.00;;;15.90;99.90;;;;;;5091260;28;20494;-80
2022/09/09 04:27:47;;;;;;;0.00;0.00;;;15.90;99.90;;;;;;5075747;28;20071;-79
2022/09/09 04:30:14;;;;;;;0.00;0.00;;;16.00;99.90;;;;;;5081687;28;20048;-79
2022/09/09 04:32:41;;;;;;;0.00;0.00;;;16.00;99.90;;;;;;5077387;28;20052;-80
2022/09/09 04:35:08;;;;;;;0.00;0.00;;;16.00;99.90;;;;;;5080885;28;20042;-81
2022/09/09 04:37:34;;;;;;;0.00;0.00;;;16.00;99.90;;;;;;5085720;28;20048;-80
2022/09/09 04:40:01;;;;;;;0.00;0.00;;;16.10;99.90;;;;;;5082826;28;20535;-81
2022/09/09 04:42:30;;;;;;;0.00;0.00;;;16.00;99.90;;;;;;5094159;28;20132;-78
2022/09/09 04:44:57;;;;;;;0.05;0.05;;;16.00;99.90;;;;;;5109412;27;20530;-80
2022/09/09 04:47:23;;;;;;;0.00;0.00;;;16.10;99.90;;;;;;5086911;28;20047;-80
2022/09/09 04:49:51;;;;;;;0.00;0.00;;;16.10;99.90;;;;;;5087662;28;20028;-79
2022/09/09 04:52:18;;;;;;;0.00;0.00;;;16.10;99.90;;;;;;5085462;28;20043;-80
2022/09/09 04:54:45;;;;;;;0.00;0.00;;;16.10;99.90;;;;;;5084115;28;20041;-79
2022/09/09 04:57:12;;;;;;;0.00;0.00;;;15.90;99.90;;;;;;5093173;28;20044;-80
2022/09/09 04:59:45;;;;;;;0.00;0.00;;;15.90;99.90;;;;;;5084034;28;20159;-80
2022/09/09 05:02:12;;;;;;;0.00;0.00;;;16.00;99.90;;;;;;5087914;28;20044;-78
2022/09/09 05:04:39;;;;;;;0.00;0.00;;;16.00;99.90;;;;;;5078338;28;20127;-80
2022/09/09 05:07:06;;;;;;;0.00;0.00;;;16.00;99.90;;;;;;5093352;28;20083;-81
2022/09/09 05:09:33;;;;;;;0.00;0.00;;;16.00;99.90;;;;;;5079295;28;20032;-80
2022/09/09 05:12:00;;;;;;;0.00;0.00;;;16.10;99.90;;;;;;5083330;28;20392;-79
2022/09/09 05:14:27;;;;;;;0.03;0.03;;;16.10;99.90;;;;;;5092532;28;20087;-80
2022/09/09 05:16:56;;;;;;;0.00;0.00;;;16.10;99.90;;;;;;5080474;28;20058;-81
2022/09/09 05:19:22;;;;;;;0.00;0.00;;;16.10;99.90;;;;;;5085844;28;20075;-81
2022/09/09 05:21:49;;;;;;;0.00;0.00;;;16.10;99.90;;;;;;5086753;28;20496;-80
2022/09/09 05:24:17;;;;;;;0.00;0.00;;;16.10;99.90;;;;;;5085896;28;20490;-79
2022/09/09 05:26:44;;;;;;;0.00;0.00;;;16.10;99.90;;;;;;5091955;28;20052;-81
2022/09/09 05:29:10;;;;;;;0.00;0.00;;;16.10;99.90;;;;;;5076048;28;20040;-81
2022/09/09 05:31:38;;;;;;;0.00;0.00;;;16.20;99.90;;;;;;5083811;28;20048;-81
2022/09/09 05:34:07;;;;;;;0.00;0.00;;;16.10;99.90;;;;;;5095723;28;20039;-81
2022/09/09 05:36:33;;;;;;;0.00;0.00;;;16.40;99.90;;;;;;5092008;28;20051;-80
2022/09/09 05:39:01;;;;;;;0.00;0.00;;;16.10;99.90;;;;;;5098200;28;20050;-79
2022/09/09 05:41:28;;;;;;;0.00;0.00;;;16.10;99.90;;;;;;5090709;28;20107;-81
2022/09/09 05:43:55;;;;;;;0.00;0.00;;;16.00;99.90;;;;;;5083490;28;20038;-81
2022/09/09 05:46:24;;;;;;;0.00;0.00;;;16.00;99.90;;;;;;5079509;28;20491;-81
2022/09/09 05:48:53;;;;;;;0.00;0.00;;;16.10;99.90;;;;;;5087703;28;20052;-81
2022/09/09 05:51:23;;;;;;;0.00;0.00;;;16.10;99.90;;;;;;5085244;28;20094;-81
2022/09/09 05:53:51;;;;;;;0.00;0.00;;;16.10;99.90;;;;;;5090355;28;20413;-79
2022/09/09 05:56:19;;;;;;;0.00;0.00;;;16.00;99.90;;;;;;5092071;28;20040;-80
2022/09/09 05:58:49;;;;;;;0.00;0.00;;;16.10;99.90;;;;;;5083742;28;20055;-80
2022/09/09 06:01:18;;;;;;;0.00;0.00;;;16.10;99.90;;;;;;5083161;28;20522;-80
2022/09/09 06:03:46;;;;;;;0.00;0.00;;;16.10;99.90;;;;;;5087074;28;20047;-81
2022/09/09 06:06:15;;;;;;;0.00;0.00;;;16.10;99.90;;;;;;5076479;28;20309;-80
2022/09/09 06:08:45;;;;;;;0.00;0.00;;;16.10;99.90;;;;;;5075841;28;20044;-81
2022/09/09 06:11:14;;;;;;;0.00;0.00;;;16.10;99.90;;;;;;5087793;28;20111;-81
2022/09/09 06:13:41;;;;;;;0.00;0.00;;;16.10;99.90;;;;;;5084424;28;20067;-79
2022/09/09 06:16:09;;;;;;;0.00;0.00;;;16.20;99.90;;;;;;5079253;28;20048;-80
2022/09/09 06:18:35;;;;;;;0.00;0.00;;;16.30;99.90;;;;;;5077439;28;20044;-81
2022/09/09 06:21:06;;;;;;;0.00;0.00;;;16.40;99.90;;;;;;5083260;28;20079;-81
2022/09/09 06:23:36;;;;;;;0.00;0.00;;;16.40;99.90;;;;;;5092872;28;20048;-80
2022/09/09 06:26:09;;;;;;;0.00;0.00;;;16.50;99.90;;;;;;5079138;28;20040;-80
2022/09/09 06:28:36;;;;;;;0.00;0.00;;;16.50;99.90;;;;;;5081204;28;20036;-80
2022/09/09 06:31:05;;;;;;;0.00;0.00;;;16.50;99.90;;;;;;5083329;28;20484;-79
2022/09/09 06:33:39;;;;;;;0.00;0.00;;;16.60;99.90;;;;;;5080166;28;20047;-81
2022/09/09 06:36:10;;;;;;;0.00;0.00;;;16.60;99.90;;;;;;5079785;28;20054;-81
2022/09/09 06:38:36;;;;;;;0.00;0.00;;;16.60;99.90;;;;;;5085506;28;20038;-80
2022/09/09 06:41:05;;;;;;;0.00;0.00;;;16.50;99.90;;;;;;5086959;28;20180;-81
2022/09/09 06:43:32;;;;;;;0.00;0.00;;;16.60;99.90;;;;;;5084989;28;20129;-80
2022/09/09 06:46:00;;;;;;;0.00;0.00;;;16.60;99.90;;;;;;5080096;28;20044;-81
2022/09/09 06:48:28;;;;;;;0.00;0.00;;;16.60;99.90;;;;;;5086881;28;20042;-80
2022/09/09 06:51:02;;;;;;;0.00;0.00;;;16.80;99.90;;;;;;5084911;28;20039;-79
2022/09/09 06:53:29;;;;;;;0.00;0.00;;;16.80;99.90;;;;;;5091417;28;20040;-80
2022/09/09 06:55:56;;;;;;;0.03;0.03;;;16.90;99.90;;;;;;5087390;28;20046;-81
2022/09/09 06:58:24;;;;;;;0.00;0.00;;;16.90;99.90;;;;;;5091081;28;20046;-80
2022/09/09 07:00:51;;;;;;;0.00;0.00;;;17.00;99.90;;;;;;5090160;28;20036;-81
2022/09/09 07:03:18;;;;;;;0.00;0.00;;;17.10;99.90;;;;;;5089443;28;20044;-81
2022/09/09 07:05:54;;;;;;;0.00;0.00;;;17.20;99.90;;;;;;5094910;28;20514;-80
2022/09/09 07:08:20;;;;;;;0.00;0.00;;;17.30;99.90;;;;;;5097309;28;20434;-80
2022/09/09 07:10:47;;;;;;;0.00;0.00;;;17.30;99.90;;;;;;5090637;28;20051;-81
2022/09/09 07:13:15;;;;;;;0.00;0.00;;;17.40;99.90;;;;;;5097954;28;20047;-80
2022/09/09 07:15:43;;;;;;;0.00;0.00;;;17.30;99.90;;;;;;5088871;28;20123;-81
2022/09/09 07:18:10;;;;;;;0.00;0.00;;;17.30;99.90;;;;;;5091274;28;20051;-81
2022/09/09 07:23:04;;;;;;;0.00;0.00;;;17.40;99.90;;;;;;5091805;28;20048;-84
2022/09/09 07:25:31;;;;;;;0.00;0.00;;;17.50;99.90;;;;;;5095929;28;20103;-85
2022/09/09 07:27:58;;;;;;;0.00;0.00;;;17.60;99.90;;;;;;5112055;28;20067;-84
2022/09/09 07:30:25;;;;;;;0.00;0.00;;;17.60;99.90;;;;;;5091204;28;20584;-86
2022/09/09 07:32:56;;;;;;;0.00;0.00;;;17.70;99.90;;;;;;5083179;28;20111;-84
2022/09/09 07:35:23;;;;;;;0.00;0.00;;;17.90;99.90;;;;;;5090009;28;20505;-85
2022/09/09 07:37:50;;;;;;;0.00;0.00;;;18.00;99.90;;;;;;5085003;28;20131;-83
2022/09/09 07:40:17;;;;;;;0.00;0.00;;;18.10;99.90;;;;;;5081025;28;20179;-85
2022/09/09 07:42:43;;;;;;;0.00;0.00;;;18.20;99.90;;;;;;5093048;28;20056;-83
2022/09/09 07:45:10;;;;;;;0.00;0.00;;;18.20;99.90;;;;;;5073711;28;20040;-83
2022/09/09 07:47:37;;;;;;;0.00;0.00;;;18.40;99.90;;;;;;5079337;28;20051;-83
2022/09/09 07:50:06;;;;;;;0.00;0.00;;;18.60;99.90;;;;;;5088401;28;20036;-83
2022/09/09 07:52:33;;;;;;;0.00;0.00;;;18.70;99.90;;;;;;5079355;28;20471;-83
2022/09/09 07:55:02;;;;;;;0.00;0.00;;;18.80;99.90;;;;;;5083605;28;20431;-84
2022/09/09 07:57:30;;;;;;;0.00;0.00;;;18.80;99.90;;;;;;5081259;28;20111;-85
2022/09/09 07:59:57;;;;;;;0.00;0.00;;;18.90;99.90;;;;;;5085551;28;20079;-85
2022/09/09 08:02:25;;;;;;;0.00;0.00;;;19.20;99.90;;;;;;5080539;28;20123;-84
2022/09/09 08:04:52;;;;;;;0.00;0.00;;;19.00;99.90;;;;;;5079850;28;20143;-84
2022/09/09 08:07:21;;;;;;;0.00;0.00;;;19.00;99.90;;;;;;5079072;28;20120;-84
2022/09/09 08:09:49;;;;;;;0.00;0.00;;;19.20;99.90;;;;;;5076182;28;20135;-83
2022/09/09 08:12:16;;;;;;;0.00;0.00;;;19.30;99.90;;;;;;5084352;28;20032;-84
2022/09/09 08:14:43;;;;;;;0.00;0.00;;;19.30;99.90;;;;;;5085332;28;20055;-84
2022/09/09 08:17:09;;;;;;;0.00;0.00;;;19.40;99.90;;;;;;5077097;28;20123;-83
2022/09/09 08:19:36;;;;;;;0.00;0.00;;;19.50;99.90;;;;;;5079769;28;20593;-83
2022/09/09 08:22:03;;;;;;;0.00;0.00;;;19.60;99.90;;;;;;5071377;28;20075;-83
2022/09/09 08:24:31;;;;;;;0.03;0.00;;;19.70;99.90;;;;;;5075556;28;20075;-84
2022/09/09 08:26:58;;;;;;;0.00;0.00;;;19.80;99.90;;;;;;5087043;28;20128;-85
2022/09/09 08:29:25;;;;;;;0.00;0.00;;;19.60;99.90;;;;;;5079405;28;20573;-83
2022/09/09 08:31:57;;;;;;;0.00;0.00;;;19.40;99.90;;;;;;5080232;28;20096;-84
2022/09/09 08:34:25;;;;;;;0.00;0.00;;;19.50;99.90;;;;;;5077454;28;20055;-84
2022/09/09 08:36:53;;;;;;;0.00;0.00;;;19.60;99.90;;;;;;5089474;28;20111;-84
2022/09/09 08:39:21;;;;;;;0.00;0.00;;;19.60;99.90;;;;;;5084997;28;20041;-84
2022/09/09 08:42:11;;;;;;;0.00;0.00;;;19.70;99.90;;;;;;5082952;28;20047;-84
2022/09/09 08:44:57;;;;;;;0.00;0.00;;;19.70;99.90;;;;;;5085128;28;20135;-84
2022/09/09 08:47:34;;;;;;;0.00;0.00;;;19.80;99.90;;;;;;5079016;28;20135;-84
2022/09/09 08:50:16;;;;;;;0.00;0.00;;;20.00;99.90;;;;;;5073502;28;20100;-85
2022/09/09 08:52:51;;;;;;;0.00;0.00;;;19.90;99.90;;;;;;5082710;28;20041;-83
2022/09/09 08:55:26;;;;;;;0.00;0.00;;;19.90;99.90;;;;;;5078814;28;20545;-83
2022/09/09 08:57:56;;;;;;;0.00;0.00;;;20.00;99.90;;;;;;5090095;28;20147;-84
2022/09/09 09:00:32;;;;;;;0.00;0.00;;;19.80;99.90;;;;;;5083283;28;20113;-84
2022/09/09 09:03:11;;;;;;;0.00;0.00;;;20.00;99.90;;;;;;5077785;28;20082;-83
2022/09/09 09:05:46;;;;;;;0.00;0.00;;;20.00;99.90;;;;;;5068562;28;20056;-84
2022/09/09 09:08:24;;;;;;;0.00;0.00;;;20.10;99.90;;;;;;5090831;28;20527;-84
2022/09/09 09:10:56;;;;;;;0.00;0.00;;;20.20;99.90;;;;;;5087890;28;20131;-85
2022/09/09 09:13:33;;;;;;;0.00;0.00;;;20.20;99.90;;;;;;5083014;28;20508;-84
2022/09/09 09:16:06;;;;;;;0.00;0.00;;;20.10;99.90;;;;;;5072008;28;20126;-85
2022/09/09 09:18:33;;;;;;;0.00;0.00;;;20.10;99.90;;;;;;5087345;28;20055;-84
2022/09/09 09:21:10;;;;;;;0.00;0.00;;;20.40;99.90;;;;;;5085292;28;20499;-84
2022/09/09 09:23:42;;;;;;;0.00;0.00;;;20.40;99.90;;;;;;5076023;28;20045;-85
2022/09/09 09:26:13;;;;;;;0.00;0.00;;;20.40;99.90;;;;;;5083799;28;20070;-86
2022/09/09 09:28:41;;;;;;;0.00;0.00;;;20.20;99.90;;;;;;5084523;28;20076;-86
2022/09/09 09:31:10;;;;;;;0.00;0.00;;;20.20;99.90;;;;;;5083832;28;20040;-85
2022/09/09 09:33:47;;;;;;;0.00;0.00;;;20.20;99.90;;;;;;5076659;28;20080;-86
2022/09/09 09:36:17;;;;;;;0.00;0.00;;;20.30;99.90;;;;;;5078103;28;20083;-85
2022/09/09 09:38:56;;;;;;;0.00;0.00;;;20.20;99.90;;;;;;5084065;28;20107;-85
2022/09/09 09:41:43;;;;;;;0.00;0.00;;;;;;;;;;5079764;28;20044;-84
2022/09/09 09:44:23;;;;;;;0.00;0.00;;;20.20;99.90;;;;;;5084824;28;20346;-84
2022/09/09 09:46:50;;;;;;;0.00;0.00;;;20.10;99.90;;;;;;5077462;28;20115;-83
2022/09/09 09:49:17;;;;;;;0.00;0.00;;;20.30;99.90;;;;;;5078910;28;20475;-84
2022/09/09 09:51:44;;;;;;;0.00;0.00;;;20.30;99.90;;;;;;5086635;28;20096;-84
2022/09/09 09:54:27;;;;;;;0.00;0.00;;;20.40;99.90;;;;;;5082111;28;20048;-84
2022/09/09 09:56:54;;;;;;;0.00;0.00;;;20.60;99.90;;;;;;5086591;28;20504;-83
2022/09/09 09:59:33;;;;;;;0.05;0.00;;;20.60;99.90;;;;;;5090389;28;20557;-83
2022/09/09 10:02:19;;;;;;;0.00;0.00;;;20.70;99.90;;;;;;5086419;28;20097;-84
2022/09/09 10:04:47;;;;;;;0.00;0.00;;;20.80;99.90;;;;;;5081576;28;20052;-83
2022/09/09 10:07:18;;;;;;;0.00;0.00;;;21.10;99.90;;;;;;5078501;28;20045;-84
2022/09/09 10:09:51;;;;;;;0.00;0.00;;;21.20;99.90;;;;;;5083078;28;20128;-85
2022/09/09 10:12:30;;;;;;;0.00;0.00;;;21.30;99.90;;;;;;5082608;28;20491;-84
2022/09/09 10:15:06;;;;;;;0.00;0.00;;;21.50;99.90;;;;;;5088109;28;20040;-82
2022/09/09 10:17:40;;;;;;;0.00;0.00;;;21.60;99.90;;;;;;5092562;28;20051;-84
2022/09/09 10:20:23;;;;;;;0.00;0.00;;;21.50;99.90;;;;;;5083867;28;20123;-84
2022/09/09 10:23:06;;;;;;;0.00;0.00;;;21.40;99.90;;;;;;5087046;28;20508;-85
2022/09/09 10:25:44;;;;;;;0.00;0.00;;;21.40;99.90;;;;;;5093990;28;20124;-85
2022/09/09 10:28:40;;;;;;;0.00;0.00;;;21.40;99.90;;;;;;5096339;28;20559;-84
2022/09/09 10:31:20;;;;;;;0.00;0.00;;;21.20;99.90;;;;;;5061952;28;20083;-84
2022/09/09 10:33:50;;;;;;;;;;;21.20;99.90;;;;;;5096648;28;20036;-82
2022/09/09 10:36:20;;;;;;;0.00;0.00;;;21.20;99.90;;;;;;5083620;28;20002;-85
2022/09/09 10:38:52;;;;;;;0.00;0.00;;;21.10;99.90;;;;;;5086171;28;20548;-82
2022/09/09 10:41:26;;;;;;;0.00;0.00;;;20.90;99.90;;;;;;5080548;28;20077;-85
2022/09/09 10:44:11;;;;;;;0.00;0.00;;;20.80;99.90;;;;;;5088712;28;20463;-84
2022/09/09 10:46:49;;;;;;;0.00;0.00;;;20.70;99.90;;;;;;5085112;28;20107;-85
2022/09/09 10:49:27;;;;;;;0.00;0.00;;;20.60;99.90;;;;;;5082141;28;20111;-85
2022/09/09 10:52:01;;;;;;;0.00;0.00;;;20.60;99.90;;;;;;5096274;28;20107;-84
2022/09/09 10:54:45;;;;;;;0.00;0.00;;;20.60;99.90;;;;;;5085635;28;20112;-84
2022/09/09 10:57:20;;;;;;;0.00;0.00;;;20.70;99.90;;;;;;5080862;28;20138;-85
2022/09/09 10:59:52;;;;;;;0.00;0.00;;;20.80;99.90;;;;;;5082704;28;20048;-84
2022/09/09 11:02:26;;;;;;;0.00;0.00;;;20.80;99.90;;;;;;5086262;28;20100;-85
2022/09/09 11:04:58;;;;;;;0.00;0.00;;;20.90;99.90;;;;;;5083001;28;20092;-85
2022/09/09 11:07:32;;;;;;;0.00;0.00;;;21.40;99.90;;;;;;5089453;28;20119;-86
2022/09/09 11:10:03;;;;;;;0.00;0.00;;;21.30;99.90;;;;;;5084564;28;20135;-86
2022/09/09 11:12:34;;;;;;;0.00;0.00;;;21.60;99.90;;;;;;5081258;28;20323;-81
2022/09/09 11:15:06;;;;;;;0.00;0.00;;;21.80;99.90;;;;;;5071042;28;20079;-85
2022/09/09 11:17:40;;;;;;;0.00;0.00;;;22.00;99.40;;;;;;5074522;28;20037;-83
2022/09/09 11:20:12;;;;;;;0.00;0.00;;;22.10;99.70;;;;;;5075417;28;20479;-84
2022/09/09 11:22:45;;;;;;;0.00;0.00;;;22.30;99.20;;;;;;5078193;28;20041;-83
2022/09/09 11:25:17;;;;;;;0.00;0.00;;;22.50;98.30;;;;;;5069121;28;20051;-84
2022/09/09 11:27:56;;;;;;;0.00;0.00;;;22.40;96.30;;;;;;5071670;28;20043;-81
2022/09/09 11:30:26;;;;;;;;;;;22.40;95.90;;;;;;5066677;28;20040;-85
2022/09/09 11:33:48;;;;;;;0.00;0.00;;;22.40;96.70;;;;;;5074989;28;20400;-85
2022/09/09 11:36:49;;;;;;;0.00;0.00;;;22.30;95.80;;;;;;5078740;28;20064;-84
2022/09/09 11:39:36;;;;;;;0.00;0.00;;;22.50;97.30;;;;;;5082217;28;20120;-84
2022/09/09 11:42:12;;;;;;;0.00;0.00;;;22.50;98.30;;;;;;5083468;28;20058;-84
2022/09/09 11:44:40;;;;;;;0.00;0.00;;;22.50;96.80;;;;;;5076865;28;20083;-84
2022/09/09 11:47:20;;;;;;;0.00;0.00;;;22.50;96.90;;;;;;5065760;28;20103;-85
2022/09/09 11:49:47;;;;;;;0.00;0.00;;;22.50;96.40;;;;;;5074718;28;20171;-85
2022/09/09 11:52:22;;;;;;;0.00;0.00;;;22.50;96.20;;;;;;5072401;28;20475;-83
2022/09/09 11:54:50;;;;;;;0.00;0.00;;;22.60;97.60;;;;;;5072451;28;20050;-84
2022/09/09 11:57:25;;;;;;;0.00;0.00;;;22.50;97.00;;;;;;5071758;28;20127;-83
2022/09/09 11:59:52;;;;;;;0.00;0.00;;;22.50;96.20;;;;;;5066901;28;20122;-83
2022/09/09 12:02:23;;;;;;;0.00;0.00;;;22.30;96.10;;;;;;5067615;28;20032;-82
2022/09/09 12:04:58;;;;;;;0.00;0.00;;;22.40;96.80;;;;;;5065148;28;20097;-83
2022/09/09 12:07:33;;;;;;;0.00;0.00;;;22.90;95.80;;;;;;5071665;28;20170;-82
2022/09/09 12:10:05;;;;;;;0.00;0.00;;;22.30;94.90;;;;;;5070982;28;20603;-82
2022/09/09 12:12:34;;;;;;;0.00;0.00;;;22.30;96.70;;;;;;5069549;28;20048;-85
2022/09/09 12:15:17;;;;;;;0.00;0.00;;;22.30;96.80;;;;;;5085102;28;20398;-84
2022/09/09 12:17:45;;;;;;;0.00;0.00;;;22.30;96.60;;;;;;5066661;28;20279;-84
2022/09/09 12:20:17;;;;;;;0.00;0.00;;;22.40;96.70;;;;;;5068040;28;20087;-85
2022/09/09 12:23:02;;;;;;;0.00;0.00;;;22.40;95.50;;;;;;5071927;28;20045;-84
2022/09/09 12:25:36;;;;;;;0.00;0.00;;;22.40;96.20;;;;;;5071161;28;20070;-85
2022/09/09 12:28:09;;;;;;;0.00;0.00;;;22.40;96.30;;;;;;5073432;28;20122;-85
2022/09/09 12:30:47;;;;;;;0.00;0.00;;;22.30;94.90;;;;;;5069048;28;20040;-85
2022/09/09 12:33:17;;;;;;;0.00;0.00;;;22.40;96.10;;;;;;5070294;28;20086;-85
2022/09/09 12:35:47;;;;;;;0.00;0.00;;;22.40;95.80;;;;;;5066370;28;20050;-84
2022/09/09 12:38:21;;;;;;;0.00;0.00;;;22.50;96.30;;;;;;5071962;28;20483;-84
2022/09/09 12:40:56;;;;;;;0.00;0.00;;;22.60;96.20;;;;;;5075003;28;20108;-84
2022/09/09 12:43:24;;;;;;;0.00;0.00;;;22.80;96.50;;;;;;5073138;28;20047;-85
2022/09/09 12:45:57;;;;;;;0.00;0.00;;;22.70;95.10;;;;;;5073264;28;20048;-84
2022/09/09 12:48:33;;;;;;;0.00;0.00;;;22.80;96.20;;;;;;5067014;28;20044;-84
2022/09/09 12:51:03;;;;;;;0.00;0.00;;;22.90;96.00;;;;;;5070042;28;20042;-83
2022/09/09 12:53:34;;;;;;;0.00;0.00;;;22.70;96.10;;;;;;5073043;28;20043;-84
2022/09/09 12:56:04;;;;;;;0.00;0.00;;;22.80;95.90;;;;;;5061983;28;20040;-84
2022/09/09 12:58:34;;;;;;;0.00;0.00;;;22.70;94.70;;;;;;5075937;28;20127;-84
2022/09/09 13:01:04;;;;;;;0.00;0.00;;;22.80;93.70;;;;;;5063416;28;20066;-83
2022/09/09 13:03:33;;;;;;;0.00;0.00;;;22.70;95.30;;;;;;5078696;28;20086;-84
2022/09/09 13:06:11;;;;;;;0.00;0.00;;;22.70;95.40;;;;;;5067363;28;20044;-84
2022/09/09 13:08:40;;;;;;;0.00;0.00;;;22.70;94.00;;;;;;5063266;28;20507;-82
2022/09/09 13:11:10;;;;;;;0.00;0.00;;;22.80;95.30;;;;;;5066045;28;20157;-83